createdAt,value
2017-05-07T00:00:30.342Z,11.96
2017-05-07T00:01:30.384Z,11.93
2017-05-07T00:02:30.415Z,11.93
2017-05-07T00:03:30.452Z,11.96
2017-05-07T00:04:31.114Z,11.96
2017-05-07T00:05:30.839Z,12.05
2017-05-07T00:06:30.871Z,12.05
2017-05-07T00:07:30.913Z,11.96
2017-05-07T00:08:30.954Z,11.96
2017-05-07T00:09:30.989Z,11.97
2017-05-07T00:10:31.330Z,11.99
2017-05-07T00:11:30.740Z,11.82
2017-05-07T00:12:31.009Z,11.78
2017-05-07T00:13:31.171Z,11.87
2017-05-07T00:14:31.155Z,11.9
2017-05-07T00:15:30.884Z,11.86
2017-05-07T00:16:31.239Z,11.83
2017-05-07T00:17:31.575Z,11.85
2017-05-07T00:18:31.623Z,11.86
2017-05-07T00:19:31.654Z,11.89
2017-05-07T00:20:31.115Z,11.93
2017-05-07T00:21:31.422Z,11.87
2017-05-07T00:22:31.465Z,11.86
2017-05-07T00:23:31.495Z,11.8
2017-05-07T00:24:31.219Z,11.67
2017-05-07T00:25:31.556Z,11.71
2017-05-07T00:26:31.300Z,11.7
2017-05-07T00:27:31.636Z,11.71
2017-05-07T00:28:31.672Z,11.71
2017-05-07T00:29:31.748Z,11.72
2017-05-07T00:30:31.739Z,11.75
2017-05-07T00:31:31.469Z,11.72
2017-05-07T00:32:32.135Z,11.7
2017-05-07T00:33:31.851Z,11.61
2017-05-07T00:34:31.895Z,11.7
2017-05-07T00:35:32.229Z,11.61
2017-05-07T00:36:31.958Z,11.57
2017-05-07T00:37:32.007Z,11.56
2017-05-07T00:38:31.733Z,11.57
2017-05-07T00:39:32.075Z,11.59
2017-05-07T00:40:31.812Z,11.65
2017-05-07T00:41:31.838Z,11.62
2017-05-07T00:42:31.866Z,11.7
2017-05-07T00:43:31.917Z,11.67
2017-05-07T00:44:32.260Z,11.59
2017-05-07T00:45:32.281Z,11.59
2017-05-07T00:46:32.333Z,11.64
2017-05-07T00:47:32.372Z,11.61
2017-05-07T00:48:32.397Z,11.67
2017-05-07T00:49:32.133Z,11.71
2017-05-07T00:50:32.167Z,11.71
2017-05-07T00:51:32.196Z,11.67
2017-05-07T00:52:32.231Z,11.67
2017-05-07T00:53:32.278Z,11.65
2017-05-07T00:54:32.613Z,11.62
2017-05-07T00:55:32.343Z,11.68
2017-05-07T00:56:32.386Z,11.77
2017-05-07T00:57:32.424Z,11.8
2017-05-07T00:58:33.076Z,11.78
2017-05-07T00:59:33.147Z,11.78
2017-05-07T01:00:32.832Z,11.8
2017-05-07T01:01:32.571Z,11.86
2017-05-07T01:02:32.594Z,11.83
2017-05-07T01:03:32.943Z,11.78
2017-05-07T01:04:32.667Z,11.71
2017-05-07T01:05:33.023Z,11.7
2017-05-07T01:06:32.750Z,11.7
2017-05-07T01:07:33.392Z,11.74
2017-05-07T01:08:32.815Z,11.67
2017-05-07T01:09:32.860Z,11.7
2017-05-07T01:10:33.207Z,11.64
2017-05-07T01:11:32.931Z,11.64
2017-05-07T01:12:33.270Z,11.71
2017-05-07T01:13:32.997Z,11.68
2017-05-07T01:14:33.040Z,11.71
2017-05-07T01:15:33.071Z,11.72
2017-05-07T01:16:33.115Z,11.72
2017-05-07T01:17:33.144Z,11.7
2017-05-07T01:18:33.488Z,11.67
2017-05-07T01:19:33.225Z,11.64
2017-05-07T01:20:33.252Z,11.59
2017-05-07T01:21:33.607Z,11.61
2017-05-07T01:22:33.629Z,11.56
2017-05-07T01:23:33.407Z,11.56
2017-05-07T01:24:33.717Z,11.47
2017-05-07T01:25:33.434Z,11.54
2017-05-07T01:26:33.469Z,11.49
2017-05-07T01:27:33.829Z,11.53
2017-05-07T01:28:33.541Z,11.46
2017-05-07T01:29:33.888Z,11.47
2017-05-07T01:30:33.628Z,11.52
2017-05-07T01:31:33.660Z,11.49
2017-05-07T01:32:33.693Z,11.43
2017-05-07T01:33:34.033Z,11.47
2017-05-07T01:34:33.758Z,11.47
2017-05-07T01:35:34.102Z,11.36
2017-05-07T01:36:33.843Z,11.39
2017-05-07T01:37:34.176Z,11.35
2017-05-07T01:38:33.912Z,11.35
2017-05-07T01:39:33.942Z,11.39
2017-05-07T01:40:33.977Z,11.43
2017-05-07T01:41:34.015Z,11.36
2017-05-07T01:42:34.361Z,11.43
2017-05-07T01:43:34.393Z,11.44
2017-05-07T01:44:34.122Z,11.36
2017-05-07T01:45:34.477Z,11.5
2017-05-07T01:46:34.826Z,11.5
2017-05-07T01:47:34.859Z,11.39
2017-05-07T01:48:34.574Z,11.44
2017-05-07T01:49:34.614Z,11.5
2017-05-07T01:50:34.660Z,11.44
2017-05-07T01:51:34.387Z,11.46
2017-05-07T01:52:34.719Z,11.52
2017-05-07T01:53:34.758Z,11.49
2017-05-07T01:54:34.497Z,11.47
2017-05-07T01:55:34.524Z,11.43
2017-05-07T01:56:34.561Z,11.39
2017-05-07T01:57:34.919Z,11.43
2017-05-07T01:58:34.642Z,11.46
2017-05-07T01:59:34.668Z,11.47
2017-05-07T02:00:34.713Z,11.52
2017-05-07T02:01:35.045Z,11.53
2017-05-07T02:02:35.093Z,11.47
2017-05-07T02:03:35.118Z,11.53
2017-05-07T02:04:34.858Z,11.38
2017-05-07T02:05:34.880Z,11.47
2017-05-07T02:06:34.929Z,11.53
2017-05-07T02:07:34.955Z,11.36
2017-05-07T02:08:35.620Z,11.39
2017-05-07T02:09:35.647Z,11.41
2017-05-07T02:10:35.696Z,11.49
2017-05-07T02:11:35.106Z,11.36
2017-05-07T02:12:35.138Z,11.49
2017-05-07T02:13:35.174Z,11.36
2017-05-07T02:14:35.219Z,11.47
2017-05-07T02:15:35.552Z,11.46
2017-05-07T02:16:35.297Z,11.34
2017-05-07T02:17:35.623Z,11.41
2017-05-07T02:18:35.387Z,11.52
2017-05-07T02:19:35.392Z,11.34
2017-05-07T02:20:35.440Z,11.41
2017-05-07T02:21:35.781Z,11.49
2017-05-07T02:22:35.808Z,11.44
2017-05-07T02:23:35.858Z,11.36
2017-05-07T02:24:36.190Z,11.36
2017-05-07T02:25:35.618Z,11.46
2017-05-07T02:26:35.958Z,11.41
2017-05-07T02:27:35.680Z,11.36
2017-05-07T02:28:35.730Z,11.39
2017-05-07T02:29:35.756Z,11.29
2017-05-07T02:30:35.800Z,11.39
2017-05-07T02:31:36.130Z,11.35
2017-05-07T02:32:36.210Z,11.43
2017-05-07T02:33:35.896Z,11.31
2017-05-07T02:34:35.952Z,11.43
2017-05-07T02:35:36.277Z,11.43
2017-05-07T02:36:36.007Z,11.43
2017-05-07T02:37:36.362Z,11.35
2017-05-07T02:38:36.080Z,11.36
2017-05-07T02:39:36.432Z,11.43
2017-05-07T02:40:36.160Z,11.35
2017-05-07T02:41:36.509Z,11.34
2017-05-07T02:42:36.542Z,11.41
2017-05-07T02:43:36.573Z,11.35
2017-05-07T02:44:36.619Z,11.36
2017-05-07T02:45:36.651Z,11.35
2017-05-07T02:46:36.682Z,11.36
2017-05-07T02:47:36.408Z,11.35
2017-05-07T02:48:37.068Z,11.35
2017-05-07T02:49:36.796Z,11.31
2017-05-07T02:50:36.515Z,11.34
2017-05-07T02:51:36.589Z,11.32
2017-05-07T02:52:36.903Z,11.49
2017-05-07T02:53:36.630Z,11.35
2017-05-07T02:54:36.661Z,11.29
2017-05-07T02:55:36.697Z,11.28
2017-05-07T02:56:36.740Z,11.28
2017-05-07T02:57:36.774Z,11.41
2017-05-07T02:58:36.800Z,11.32
2017-05-07T02:59:37.468Z,11.35
2017-05-07T03:00:36.876Z,11.43
2017-05-07T03:01:37.221Z,11.34
2017-05-07T03:02:37.577Z,11.32
2017-05-07T03:03:37.290Z,11.41
2017-05-07T03:04:37.021Z,11.41
2017-05-07T03:05:37.068Z,11.36
2017-05-07T03:06:37.094Z,11.32
2017-05-07T03:07:37.758Z,11.43
2017-05-07T03:08:37.797Z,11.35
2017-05-07T03:09:37.205Z,11.38
2017-05-07T03:10:37.264Z,11.34
2017-05-07T03:11:37.272Z,11.43
2017-05-07T03:12:37.315Z,11.41
2017-05-07T03:13:37.670Z,11.34
2017-05-07T03:14:37.691Z,11.47
2017-05-07T03:15:37.737Z,11.35
2017-05-07T03:16:37.457Z,11.36
2017-05-07T03:17:38.140Z,11.39
2017-05-07T03:18:37.538Z,11.44
2017-05-07T03:19:37.870Z,11.41
2017-05-07T03:20:37.908Z,11.44
2017-05-07T03:21:37.647Z,11.38
2017-05-07T03:22:38.011Z,11.32
2017-05-07T03:23:38.012Z,11.35
2017-05-07T03:24:38.049Z,11.31
2017-05-07T03:25:38.124Z,11.24
2017-05-07T03:26:38.123Z,11.35
2017-05-07T03:27:37.858Z,11.35
2017-05-07T03:28:37.899Z,11.27
2017-05-07T03:29:38.242Z,11.32
2017-05-07T03:30:37.969Z,11.31
2017-05-07T03:31:37.997Z,11.36
2017-05-07T03:32:38.044Z,11.39
2017-05-07T03:33:38.072Z,11.43
2017-05-07T03:34:38.106Z,11.41
2017-05-07T03:35:38.141Z,11.34
2017-05-07T03:36:38.810Z,11.35
2017-05-07T03:37:38.532Z,11.28
2017-05-07T03:38:38.571Z,11.41
2017-05-07T03:39:38.291Z,11.31
2017-05-07T03:40:38.946Z,11.35
2017-05-07T03:41:38.375Z,11.38
2017-05-07T03:42:38.703Z,11.35
2017-05-07T03:43:38.740Z,11.38
2017-05-07T03:44:38.774Z,11.46
2017-05-07T03:45:38.512Z,11.43
2017-05-07T03:46:38.858Z,11.52
2017-05-07T03:47:38.900Z,11.47
2017-05-07T03:48:38.609Z,11.49
2017-05-07T03:49:38.650Z,11.53
2017-05-07T03:50:39.003Z,11.56
2017-05-07T03:51:39.042Z,11.49
2017-05-07T03:52:39.068Z,11.49
2017-05-07T03:53:39.102Z,11.56
2017-05-07T03:54:38.839Z,11.57
2017-05-07T03:55:38.875Z,11.62
2017-05-07T03:56:38.902Z,11.62
2017-05-07T03:57:38.950Z,11.62
2017-05-07T03:58:39.285Z,11.68
2017-05-07T03:59:39.022Z,11.67
2017-05-07T04:00:39.059Z,11.65
2017-05-07T04:01:39.389Z,11.75
2017-05-07T04:02:39.129Z,11.65
2017-05-07T04:03:39.784Z,11.8
2017-05-07T04:04:39.530Z,11.62
2017-05-07T04:05:39.536Z,11.67
2017-05-07T04:06:39.279Z,11.68
2017-05-07T04:07:39.611Z,11.72
2017-05-07T04:08:39.341Z,11.8
2017-05-07T04:09:39.386Z,11.77
2017-05-07T04:10:39.720Z,11.8
2017-05-07T04:11:39.457Z,11.83
2017-05-07T04:12:39.817Z,11.8
2017-05-07T04:13:39.834Z,11.78
2017-05-07T04:14:39.554Z,11.78
2017-05-07T04:15:39.913Z,11.83
2017-05-07T04:16:39.638Z,11.82
2017-05-07T04:17:40.291Z,11.86
2017-05-07T04:18:39.710Z,11.78
2017-05-07T04:19:39.738Z,11.87
2017-05-07T04:20:40.092Z,11.86
2017-05-07T04:21:40.119Z,11.86
2017-05-07T04:22:39.856Z,11.86
2017-05-07T04:23:39.898Z,11.93
2017-05-07T04:24:39.927Z,11.87
2017-05-07T04:25:40.281Z,11.94
2017-05-07T04:26:40.020Z,11.94
2017-05-07T04:27:40.034Z,12.04
2017-05-07T04:28:40.066Z,12.02
2017-05-07T04:29:40.102Z,11.99
2017-05-07T04:30:40.457Z,12.02
2017-05-07T04:31:40.175Z,12.06
2017-05-07T04:32:40.221Z,12.13
2017-05-07T04:33:40.880Z,12.04
2017-05-07T04:34:40.636Z,12.15
2017-05-07T04:35:40.940Z,12.05
2017-05-07T04:36:40.670Z,12.09
2017-05-07T04:37:40.704Z,12.11
2017-05-07T04:38:40.744Z,12.16
2017-05-07T04:39:40.792Z,12.15
2017-05-07T04:40:40.834Z,12.23
2017-05-07T04:41:40.551Z,12.26
2017-05-07T04:42:40.913Z,12.23
2017-05-07T04:43:40.927Z,12.19
2017-05-07T04:44:40.964Z,12.24
2017-05-07T04:45:41.009Z,12.26
2017-05-07T04:46:40.727Z,12.24
2017-05-07T04:47:41.074Z,12.26
2017-05-07T04:48:40.799Z,12.27
2017-05-07T04:49:41.157Z,12.31
2017-05-07T04:50:41.182Z,12.3
2017-05-07T04:51:41.228Z,12.34
2017-05-07T04:52:40.951Z,12.29
2017-05-07T04:53:40.993Z,12.31
2017-05-07T04:54:41.337Z,12.3
2017-05-07T04:55:41.364Z,12.3
2017-05-07T04:56:41.403Z,12.29
2017-05-07T04:57:41.452Z,12.46
2017-05-07T04:58:41.180Z,12.42
2017-05-07T04:59:41.215Z,12.39
2017-05-07T05:00:41.564Z,12.31
2017-05-07T05:01:41.585Z,12.29
2017-05-07T05:02:41.322Z,12.38
2017-05-07T05:03:41.676Z,12.31
2017-05-07T05:04:41.388Z,12.34
2017-05-07T05:05:41.435Z,12.37
2017-05-07T05:06:41.466Z,12.29
2017-05-07T05:07:41.825Z,12.3
2017-05-07T05:08:41.851Z,12.29
2017-05-07T05:09:41.573Z,12.37
2017-05-07T05:10:41.608Z,12.27
2017-05-07T05:11:41.652Z,12.29
2017-05-07T05:12:41.683Z,12.34
2017-05-07T05:13:41.720Z,12.38
2017-05-07T05:14:42.070Z,12.38
2017-05-07T05:15:42.111Z,12.44
2017-05-07T05:16:42.141Z,12.42
2017-05-07T05:17:41.868Z,12.45
2017-05-07T05:18:41.902Z,12.38
2017-05-07T05:19:41.951Z,12.41
2017-05-07T05:20:42.284Z,12.41
2017-05-07T05:21:42.014Z,12.45
2017-05-07T05:22:42.048Z,12.45
2017-05-07T05:23:42.109Z,12.45
2017-05-07T05:24:42.439Z,12.46
2017-05-07T05:25:42.162Z,12.39
2017-05-07T05:26:42.211Z,12.49
2017-05-07T05:27:42.543Z,12.52
2017-05-07T05:28:42.578Z,12.42
2017-05-07T05:29:42.629Z,12.37
2017-05-07T05:30:42.668Z,12.37
2017-05-07T05:31:42.709Z,12.41
2017-05-07T05:32:42.452Z,12.51
2017-05-07T05:33:42.783Z,12.48
2017-05-07T05:34:42.802Z,12.45
2017-05-07T05:35:42.843Z,12.56
2017-05-07T05:36:42.885Z,12.46
2017-05-07T05:37:42.928Z,12.44
2017-05-07T05:38:42.948Z,12.46
2017-05-07T05:39:42.996Z,12.51
2017-05-07T05:40:42.716Z,12.46
2017-05-07T05:41:42.750Z,12.42
2017-05-07T05:42:42.793Z,12.51
2017-05-07T05:43:42.837Z,12.51
2017-05-07T05:44:43.482Z,12.48
2017-05-07T05:45:42.898Z,12.49
2017-05-07T05:46:42.934Z,12.64
2017-05-07T05:47:42.985Z,12.52
2017-05-07T05:48:43.015Z,12.52
2017-05-07T05:49:43.353Z,12.57
2017-05-07T05:50:43.698Z,12.63
2017-05-07T05:51:43.134Z,12.66
2017-05-07T05:52:43.465Z,12.62
2017-05-07T05:53:43.205Z,12.69
2017-05-07T05:54:43.849Z,12.75
2017-05-07T05:55:43.610Z,12.81
2017-05-07T05:56:43.316Z,12.77
2017-05-07T05:57:43.342Z,12.88
2017-05-07T05:58:43.393Z,12.88
2017-05-07T05:59:43.737Z,12.97
2017-05-07T06:00:43.758Z,12.97
2017-05-07T06:01:43.492Z,12.99
2017-05-07T06:02:43.853Z,13.04
2017-05-07T06:03:43.588Z,13.02
2017-05-07T06:04:43.606Z,13.15
2017-05-07T06:05:43.652Z,13.14
2017-05-07T06:06:44.001Z,13.2
2017-05-07T06:07:43.718Z,13.15
2017-05-07T06:08:44.067Z,13.25
2017-05-07T06:09:44.402Z,13.22
2017-05-07T06:10:43.826Z,13.29
2017-05-07T06:11:43.876Z,13.33
2017-05-07T06:12:43.901Z,13.38
2017-05-07T06:13:43.951Z,13.49
2017-05-07T06:14:43.980Z,13.49
2017-05-07T06:15:44.016Z,13.46
2017-05-07T06:16:44.056Z,13.52
2017-05-07T06:17:44.103Z,13.61
2017-05-07T06:18:44.450Z,13.55
2017-05-07T06:19:44.204Z,13.49
2017-05-07T06:20:44.822Z,13.58
2017-05-07T06:21:44.563Z,13.59
2017-05-07T06:22:44.278Z,13.52
2017-05-07T06:23:44.332Z,13.61
2017-05-07T06:24:44.681Z,13.69
2017-05-07T06:25:44.403Z,13.7
2017-05-07T06:26:45.046Z,13.65
2017-05-07T06:27:44.481Z,13.7
2017-05-07T06:28:44.510Z,13.76
2017-05-07T06:29:44.557Z,13.77
2017-05-07T06:30:44.582Z,13.81
2017-05-07T06:31:44.626Z,13.8
2017-05-07T06:32:44.968Z,13.81
2017-05-07T06:33:44.700Z,13.89
2017-05-07T06:34:45.056Z,13.87
2017-05-07T06:35:44.779Z,13.89
2017-05-07T06:36:45.112Z,13.84
2017-05-07T06:37:44.860Z,13.89
2017-05-07T06:38:45.195Z,14.02
2017-05-07T06:39:45.242Z,13.95
2017-05-07T06:40:45.274Z,13.98
2017-05-07T06:41:45.309Z,13.95
2017-05-07T06:42:45.046Z,14.06
2017-05-07T06:43:45.073Z,14.07
2017-05-07T06:44:45.123Z,14.04
2017-05-07T06:45:45.153Z,14.04
2017-05-07T06:46:45.501Z,14.12
2017-05-07T06:47:45.243Z,14.14
2017-05-07T06:48:45.276Z,14.12
2017-05-07T06:49:45.314Z,14.09
2017-05-07T06:50:45.343Z,14.07
2017-05-07T06:51:45.698Z,14.07
2017-05-07T06:52:45.419Z,14.09
2017-05-07T06:53:45.770Z,14.1
2017-05-07T06:54:45.802Z,14.12
2017-05-07T06:55:45.548Z,14.19
2017-05-07T06:56:45.890Z,14.1
2017-05-07T06:57:45.915Z,14.16
2017-05-07T06:58:45.663Z,14.14
2017-05-07T06:59:45.694Z,14.12
2017-05-07T07:00:45.733Z,14.13
2017-05-07T07:01:45.761Z,14.12
2017-05-07T07:02:45.795Z,14.17
2017-05-07T07:03:45.847Z,14.13
2017-05-07T07:04:45.880Z,14.1
2017-05-07T07:05:45.921Z,14.2
2017-05-07T07:06:45.958Z,14.2
2017-05-07T07:07:46.028Z,14.32
2017-05-07T07:08:46.038Z,14.2
2017-05-07T07:09:46.368Z,14.28
2017-05-07T07:10:46.430Z,14.31
2017-05-07T07:11:46.489Z,14.43
2017-05-07T07:12:46.191Z,14.34
2017-05-07T07:13:46.539Z,14.49
2017-05-07T07:14:46.257Z,14.6
2017-05-07T07:15:46.598Z,14.68
2017-05-07T07:16:46.642Z,14.74
2017-05-07T07:17:46.372Z,14.81
2017-05-07T07:18:46.419Z,14.83
2017-05-07T07:19:46.457Z,14.98
2017-05-07T07:20:46.485Z,14.95
2017-05-07T07:21:46.842Z,15.05
2017-05-07T07:22:46.561Z,15.03
2017-05-07T07:23:46.612Z,15.24
2017-05-07T07:24:46.647Z,15.28
2017-05-07T07:25:46.678Z,15.38
2017-05-07T07:26:47.036Z,15.46
2017-05-07T07:27:46.756Z,15.41
2017-05-07T07:28:46.791Z,15.51
2017-05-07T07:29:47.152Z,15.57
2017-05-07T07:30:46.878Z,15.63
2017-05-07T07:31:46.920Z,15.63
2017-05-07T07:32:46.960Z,15.64
2017-05-07T07:33:47.299Z,15.63
2017-05-07T07:34:47.333Z,15.63
2017-05-07T07:35:47.064Z,15.61
2017-05-07T07:36:47.114Z,15.6
2017-05-07T07:37:47.451Z,15.74
2017-05-07T07:38:47.187Z,15.61
2017-05-07T07:39:47.531Z,15.66
2017-05-07T07:40:47.273Z,15.6
2017-05-07T07:41:47.314Z,15.57
2017-05-07T07:42:47.344Z,15.61
2017-05-07T07:43:47.374Z,15.61
2017-05-07T07:44:48.045Z,15.74
2017-05-07T07:45:47.462Z,15.76
2017-05-07T07:46:47.490Z,15.7
2017-05-07T07:47:47.533Z,15.68
2017-05-07T07:48:47.570Z,15.76
2017-05-07T07:49:47.618Z,15.79
2017-05-07T07:50:47.656Z,15.84
2017-05-07T07:51:47.728Z,15.92
2017-05-07T07:52:47.757Z,15.86
2017-05-07T07:53:48.093Z,15.88
2017-05-07T07:54:47.803Z,15.96
2017-05-07T07:55:48.162Z,15.94
2017-05-07T07:56:47.895Z,15.99
2017-05-07T07:57:47.923Z,15.94
2017-05-07T07:58:48.285Z,15.94
2017-05-07T07:59:48.013Z,16.03
2017-05-07T08:00:48.347Z,15.99
2017-05-07T08:01:48.091Z,16
2017-05-07T08:02:48.131Z,16.07
2017-05-07T08:03:48.166Z,15.96
2017-05-07T08:04:48.201Z,16.03
2017-05-07T08:05:48.554Z,16.09
2017-05-07T08:06:48.274Z,16.12
2017-05-07T08:07:48.315Z,16.09
2017-05-07T08:08:48.374Z,16.06
2017-05-07T08:09:48.394Z,16.18
2017-05-07T08:10:48.429Z,16.11
2017-05-07T08:11:48.786Z,16.14
2017-05-07T08:12:48.512Z,16.26
2017-05-07T08:13:48.874Z,16.23
2017-05-07T08:14:48.591Z,16.3
2017-05-07T08:15:48.628Z,16.4
2017-05-07T08:16:48.677Z,16.41
2017-05-07T08:17:49.015Z,16.5
2017-05-07T08:18:49.053Z,16.5
2017-05-07T08:19:48.800Z,16.56
2017-05-07T08:20:48.823Z,16.56
2017-05-07T08:21:49.183Z,16.53
2017-05-07T08:22:49.211Z,16.68
2017-05-07T08:23:48.967Z,16.53
2017-05-07T08:24:49.614Z,16.63
2017-05-07T08:25:49.022Z,16.73
2017-05-07T08:26:49.273Z,16.7
2017-05-07T08:27:49.406Z,16.73
2017-05-07T08:28:49.142Z,16.71
2017-05-07T08:29:49.187Z,16.78
2017-05-07T08:30:49.526Z,16.75
2017-05-07T08:31:49.270Z,16.85
2017-05-07T08:32:49.638Z,16.83
2017-05-07T08:33:49.344Z,17
2017-05-07T08:34:49.379Z,17.11
2017-05-07T08:35:49.421Z,17.28
2017-05-07T08:36:49.454Z,17.29
2017-05-07T08:37:49.504Z,17.33
2017-05-07T08:38:49.844Z,17.46
2017-05-07T08:39:49.580Z,17.43
2017-05-07T08:40:49.616Z,17.43
2017-05-07T08:41:49.667Z,17.55
2017-05-07T08:42:49.696Z,17.62
2017-05-07T08:43:50.056Z,17.64
2017-05-07T08:44:49.776Z,17.64
2017-05-07T08:45:49.812Z,17.71
2017-05-07T08:46:49.861Z,17.74
2017-05-07T08:47:49.899Z,17.87
2017-05-07T08:48:50.256Z,17.89
2017-05-07T08:49:49.995Z,17.88
2017-05-07T08:50:50.029Z,17.99
2017-05-07T08:51:50.059Z,17.99
2017-05-07T08:52:50.110Z,18.18
2017-05-07T08:53:50.152Z,18.12
2017-05-07T08:54:50.183Z,18.37
2017-05-07T08:55:50.230Z,18.43
2017-05-07T08:56:50.266Z,18.52
2017-05-07T08:57:50.314Z,18.57
2017-05-07T08:58:50.352Z,18.62
2017-05-07T08:59:50.693Z,18.72
2017-05-07T09:00:50.775Z,18.77
2017-05-07T09:01:50.464Z,18.77
2017-05-07T09:02:50.821Z,18.76
2017-05-07T09:03:50.546Z,18.83
2017-05-07T09:04:50.591Z,18.86
2017-05-07T09:05:50.650Z,18.94
2017-05-07T09:06:50.683Z,19.02
2017-05-07T09:07:51.034Z,19.11
2017-05-07T09:08:50.753Z,19.13
2017-05-07T09:09:50.808Z,19.08
2017-05-07T09:10:50.844Z,19.13
2017-05-07T09:11:50.885Z,19.1
2017-05-07T09:12:51.241Z,19.06
2017-05-07T09:13:50.958Z,19.05
2017-05-07T09:14:51.008Z,18.97
2017-05-07T09:15:51.369Z,18.87
2017-05-07T09:16:51.097Z,18.82
2017-05-07T09:17:51.430Z,18.74
2017-05-07T09:18:51.165Z,18.58
2017-05-07T09:19:51.204Z,18.49
2017-05-07T09:20:51.243Z,18.4
2017-05-07T09:21:51.599Z,18.39
2017-05-07T09:22:51.337Z,18.1
2017-05-07T09:23:51.368Z,18.06
2017-05-07T09:24:51.419Z,17.97
2017-05-07T09:25:51.445Z,17.97
2017-05-07T09:26:51.501Z,17.94
2017-05-07T09:27:51.541Z,17.79
2017-05-07T09:28:51.567Z,17.73
2017-05-07T09:29:51.622Z,17.74
2017-05-07T09:30:52.264Z,17.74
2017-05-07T09:31:51.705Z,17.67
2017-05-07T09:32:52.049Z,17.69
2017-05-07T09:33:51.767Z,17.73
2017-05-07T09:34:51.817Z,17.71
2017-05-07T09:35:51.858Z,17.84
2017-05-07T09:36:51.900Z,17.91
2017-05-07T09:37:51.930Z,17.87
2017-05-07T09:38:51.967Z,17.91
2017-05-07T09:39:52.314Z,18.03
2017-05-07T09:40:52.052Z,18.07
2017-05-07T09:41:52.103Z,18.18
2017-05-07T09:42:52.433Z,18.15
2017-05-07T09:43:52.491Z,18.21
2017-05-07T09:44:52.219Z,18.13
2017-05-07T09:45:52.249Z,18.12
2017-05-07T09:46:52.610Z,18.13
2017-05-07T09:47:52.656Z,18.17
2017-05-07T09:48:52.378Z,18.24
2017-05-07T09:49:52.419Z,18.34
2017-05-07T09:50:52.468Z,18.4
2017-05-07T09:51:52.800Z,18.42
2017-05-07T09:52:52.535Z,18.43
2017-05-07T09:53:52.584Z,18.47
2017-05-07T09:54:52.927Z,18.5
2017-05-07T09:55:52.668Z,18.59
2017-05-07T09:56:53.002Z,18.65
2017-05-07T09:57:53.367Z,18.68
2017-05-07T09:58:53.096Z,18.7
2017-05-07T09:59:53.135Z,18.65
2017-05-07T10:00:53.164Z,18.8
2017-05-07T10:01:52.901Z,18.83
2017-05-07T10:02:53.249Z,18.97
2017-05-07T10:03:52.980Z,19.01
2017-05-07T10:04:53.031Z,18.97
2017-05-07T10:05:53.381Z,19.02
2017-05-07T10:06:53.102Z,18.98
2017-05-07T10:07:53.164Z,19.06
2017-05-07T10:08:53.197Z,19.2
2017-05-07T10:09:53.540Z,19.14
2017-05-07T10:10:53.283Z,19.24
2017-05-07T10:11:53.315Z,19.38
2017-05-07T10:12:53.361Z,19.43
2017-05-07T10:13:53.391Z,19.35
2017-05-07T10:14:53.742Z,19.47
2017-05-07T10:15:53.485Z,19.38
2017-05-07T10:16:53.516Z,19.47
2017-05-07T10:17:53.569Z,19.4
2017-05-07T10:18:53.610Z,19.46
2017-05-07T10:19:53.645Z,19.4
2017-05-07T10:20:53.688Z,19.55
2017-05-07T10:21:53.736Z,19.46
2017-05-07T10:22:53.767Z,19.63
2017-05-07T10:23:53.809Z,19.66
2017-05-07T10:24:53.863Z,19.7
2017-05-07T10:25:53.906Z,19.87
2017-05-07T10:26:53.942Z,19.78
2017-05-07T10:27:53.988Z,20.02
2017-05-07T10:28:54.041Z,20.1
2017-05-07T10:29:54.073Z,20.27
2017-05-07T10:30:54.409Z,20.46
2017-05-07T10:31:54.762Z,20.58
2017-05-07T10:32:54.428Z,20.83
2017-05-07T10:33:54.232Z,20.93
2017-05-07T10:34:54.274Z,21.08
2017-05-07T10:35:54.319Z,21.16
2017-05-07T10:36:54.373Z,21.08
2017-05-07T10:37:54.727Z,21.11
2017-05-07T10:38:54.461Z,21.09
2017-05-07T10:39:54.507Z,21.14
2017-05-07T10:40:54.545Z,21.09
2017-05-07T10:41:54.912Z,21.09
2017-05-07T10:42:54.635Z,21.08
2017-05-07T10:43:54.672Z,21.24
2017-05-07T10:44:54.722Z,21.24
2017-05-07T10:45:54.768Z,21.29
2017-05-07T10:46:54.799Z,21.3
2017-05-07T10:47:55.167Z,21.23
2017-05-07T10:48:54.893Z,21.23
2017-05-07T10:49:55.250Z,21.19
2017-05-07T10:50:54.987Z,21.13
2017-05-07T10:51:55.029Z,21.01
2017-05-07T10:52:55.071Z,21.04
2017-05-07T10:53:55.423Z,21.06
2017-05-07T10:54:55.150Z,21.11
2017-05-07T10:55:55.199Z,21.08
2017-05-07T10:56:55.233Z,21.05
2017-05-07T10:57:55.281Z,21.05
2017-05-07T10:58:55.634Z,21.13
2017-05-07T10:59:55.691Z,21.23
2017-05-07T11:00:55.407Z,21.3
2017-05-07T11:01:55.470Z,21.32
2017-05-07T11:02:55.496Z,21.36
2017-05-07T11:03:55.553Z,21.42
2017-05-07T11:04:55.584Z,21.5
2017-05-07T11:05:55.644Z,21.64
2017-05-07T11:06:55.682Z,21.67
2017-05-07T11:07:55.718Z,21.78
2017-05-07T11:08:55.774Z,21.79
2017-05-07T11:09:55.806Z,21.79
2017-05-07T11:10:55.849Z,21.74
2017-05-07T11:11:55.916Z,21.85
2017-05-07T11:12:55.942Z,21.64
2017-05-07T11:13:55.999Z,21.63
2017-05-07T11:14:56.027Z,21.61
2017-05-07T11:15:56.391Z,21.54
2017-05-07T11:16:56.117Z,21.5
2017-05-07T11:17:56.487Z,21.42
2017-05-07T11:18:56.201Z,21.5
2017-05-07T11:19:56.247Z,21.46
2017-05-07T11:20:56.614Z,21.61
2017-05-07T11:21:56.338Z,21.66
2017-05-07T11:22:56.378Z,21.63
2017-05-07T11:23:56.740Z,21.63
2017-05-07T11:24:56.476Z,21.64
2017-05-07T11:25:56.830Z,21.71
2017-05-07T11:26:56.564Z,21.67
2017-05-07T11:27:56.604Z,21.74
2017-05-07T11:28:56.641Z,21.61
2017-05-07T11:29:57.004Z,21.64
2017-05-07T11:30:56.732Z,21.51
2017-05-07T11:31:56.773Z,21.53
2017-05-07T11:32:56.815Z,21.45
2017-05-07T11:33:56.881Z,21.36
2017-05-07T11:34:56.903Z,21.38
2017-05-07T11:35:56.960Z,21.35
2017-05-07T11:36:57.307Z,21.23
2017-05-07T11:37:57.037Z,21.29
2017-05-07T11:38:57.407Z,21.2
2017-05-07T11:39:57.439Z,21.14
2017-05-07T11:40:57.484Z,21.04
2017-05-07T11:41:57.514Z,21.04
2017-05-07T11:42:57.573Z,21.01
2017-05-07T11:43:57.615Z,20.95
2017-05-07T11:44:57.350Z,20.86
2017-05-07T11:45:57.390Z,20.87
2017-05-07T11:46:57.430Z,20.71
2017-05-07T11:47:57.462Z,20.74
2017-05-07T11:48:57.516Z,20.76
2017-05-07T11:49:57.563Z,20.89
2017-05-07T11:50:57.904Z,20.79
2017-05-07T11:51:57.646Z,20.83
2017-05-07T11:52:57.680Z,20.95
2017-05-07T11:53:57.746Z,20.95
2017-05-07T11:54:57.772Z,20.91
2017-05-07T11:55:57.806Z,20.95
2017-05-07T11:56:57.855Z,20.93
2017-05-07T11:57:57.902Z,20.91
2017-05-07T11:58:57.930Z,20.8
2017-05-07T11:59:58.278Z,20.84
2017-05-07T12:00:58.336Z,20.81
2017-05-07T12:01:58.367Z,20.87
2017-05-07T12:02:58.100Z,20.76
2017-05-07T12:03:58.142Z,20.77
2017-05-07T12:04:58.184Z,20.69
2017-05-07T12:05:58.236Z,20.56
2017-05-07T12:06:58.589Z,20.61
2017-05-07T12:07:58.623Z,20.59
2017-05-07T12:08:58.350Z,20.56
2017-05-07T12:09:58.403Z,20.59
2017-05-07T12:10:58.443Z,20.61
2017-05-07T12:11:58.487Z,20.68
2017-05-07T12:12:58.523Z,20.58
2017-05-07T12:13:58.573Z,20.59
2017-05-07T12:14:58.613Z,20.59
2017-05-07T12:15:58.644Z,20.58
2017-05-07T12:16:58.993Z,20.56
2017-05-07T12:17:58.729Z,20.51
2017-05-07T12:18:59.080Z,20.5
2017-05-07T12:19:59.439Z,20.59
2017-05-07T12:20:59.159Z,20.59
2017-05-07T12:21:59.204Z,20.58
2017-05-07T12:22:58.936Z,20.61
2017-05-07T12:23:58.987Z,20.58
2017-05-07T12:24:59.022Z,20.58
2017-05-07T12:25:59.694Z,20.68
2017-05-07T12:26:59.417Z,20.72
2017-05-07T12:27:59.161Z,20.89
2017-05-07T12:28:59.497Z,20.98
2017-05-07T12:29:59.242Z,21.05
2017-05-07T12:30:59.272Z,21.06
2017-05-07T12:31:59.318Z,21.08
2017-05-07T12:32:59.366Z,21.17
2017-05-07T12:33:59.420Z,21.3
2017-05-07T12:34:59.760Z,21.35
2017-05-07T12:35:59.483Z,21.34
2017-05-07T12:36:59.834Z,21.48
2017-05-07T12:37:59.609Z,21.5
2017-05-07T12:38:59.617Z,21.46
2017-05-07T12:39:59.969Z,21.6
2017-05-07T12:40:59.714Z,21.59
2017-05-07T12:41:59.751Z,21.64
2017-05-07T12:43:00.106Z,21.67
2017-05-07T12:43:59.829Z,21.59
2017-05-07T12:44:59.883Z,21.56
2017-05-07T12:45:59.912Z,21.61
2017-05-07T12:47:00.276Z,21.64
2017-05-07T12:48:00.311Z,21.66
2017-05-07T12:49:00.042Z,21.57
2017-05-07T12:50:00.703Z,21.5
2017-05-07T12:51:00.136Z,21.46
2017-05-07T12:52:00.168Z,21.54
2017-05-07T12:53:00.221Z,21.53
2017-05-07T12:54:00.255Z,21.45
2017-05-07T12:55:00.300Z,21.39
2017-05-07T12:56:00.345Z,21.3